Indian Trail, NC (28079)

10:44 AM EDT on August 29, 2016 (GMT -0400)
Bonterra | | Change Station

Elev 639 ft 35.08 °N, 80.61 °W | Updated 8 seconds ago

Clear
Clear
81.6 °F
Feels Like 86 °F
N
0.0
Wind Variable Wind from WSW
Gusts 0.0 mph

Today
High -- | Low -- °F
--% Chance of Precip.
Yesterday
High -- | Low -- °F
Precip. -- in
Pressure 30.14 in
Visibility 10.0 miles
Clouds Clear
Heat Index 86 °F
Dew Point 72 °F
Humidity 72%
Rainfall 0.00 in
Snow Depth Not available.
6:53 AM 7:52 PM
Waning Crescent, 8% visible
METAR KEQY 291353Z AUTO 05005KT 10SM CLR 27/21 A3015 RMK AO2 SLP206 T02670211
Pressure 30.14 in
Visibility 10.0 miles
Clouds Clear
Heat Index 86 °F
Dew Point 72 °F
Humidity 72%
Rainfall 0.00 in
Snow Depth Not available.
6:53 AM 7:52 PM
Waning Crescent, 8% visible
METAR KEQY 291353Z AUTO 05005KT 10SM CLR 27/21 A3015 RMK AO2 SLP206 T02670211

10-Day Weather Forecast

Almanac

Astronomy

Aug. 29, 2016 Rise Set
Actual Time
Civil Twilight
Nautical Twilight
Astronomical Twilight
Moon
Length of Visible Light
Length of Day
Tomorrow will be .
, % of the Moon is Illuminated

Today's Extremes

State Highs State Lows

Community

WunderPhotos

Upload Photos

1,935,840 photos uploaded!

WunderBlog® & News

Nearby

Air Quality

  Air Quality AQ Index Pollutant
Not available.

Snow Depth

Station Depth Elevation

Earthquake Activity

City Distance Mag. Time & Date
Minimum magnitude displayed is 2.5.

Coastal Water Temperatures

Place Temperature

Stations

Nearby Weather Stations

Station Location Temp. Windchill Dew Point Humidity Wind Precip. Elev Updated Type
                   

Watches & Warnings

There are currently no watches in effect.